Celebrity Reflection — 9HA3047 — position and weather

sailwx.info

Track history (hours):
 
Tides and Currents Weather Stations Pressure Air Temp Water Temp Dewpoint Dewpoint Depression Visibility Wind Speed Wind Dir Waves Ship Positions

Celebrity Reflection

Last reported at 2019-Oct-18 23:26 UTC. Time now 2019-Oct-18 23:52 UTC.
Position N 42°55' E 006°45'.

Length 319 m; draft 8.5 m.

Type: Passenger vessel. MMSI: 229074000.

Date/timePositionNaut miles runAvg speedWind from/ knotsBaromVisibWave heightAir tempDewpointWater temp
2019-Oct-18 23:26N 42°55' E 006°45'911.2
2019-Oct-18 22:36N 42°49' E 006°35'63 8.3
2019-Oct-18 15:00N 43°18' E 005°18'45 3.7 180 / 161011.010.8 22.018.920.0
2019-Oct-18 03:00N 42°42' E 004°42'8518.5 130 / 261011.0 19.0 20.0
2019-Oct-17 22:24N 41°35' E 003°32'817.0
2019-Oct-17 21:58N 41°29' E 003°26'917.0
2019-Oct-17 21:27N 41°22' E 003°19'917.6
2019-Oct-17 20:56N 41°14' E 003°12'717.6
2019-Oct-17 20:30N 41°08' E 003°06'1417.1
2019-Oct-17 19:41N 40°57' E 002°56'917.2
2019-Oct-17 19:09N 40°49' E 002°48'417.0
2019-Oct-17 18:54N 40°46' E 002°45'817.1
2019-Oct-17 18:26N 40°39' E 002°39'717.1
2019-Oct-17 18:00N 40°33' E 002°34'2117.7
2019-Oct-17 16:48N 40°16' E 002°17'618.6
2019-Oct-17 16:30N 40°11' E 002°13'510.6
2019-Oct-17 16:00N 40°06' E 002°12'21616.6 230 / 151012.027.0 23.023.024.0
2019-Oct-17 03:00N 37°18' W 000°42'2322.6 260 / 181014.027.0 21.021.024.0
2019-Oct-17 02:00N 37°06' W 001°06'7615.7 260 / 171017.027.0
2019-Oct-16 21:08N 36°22' W 002°24'217.3
2019-Oct-16 21:00N 36°22' W 002°27'917.2
2019-Oct-16 20:30N 36°24' W 002°37'917.2
2019-Oct-16 20:00N 36°26' W 002°47'917.3
2019-Oct-16 19:30N 36°28' W 002°58'1617.3
2019-Oct-16 18:35N 36°30' W 003°18'117.5
2019-Oct-16 18:30N 36°30' W 003°19'1417.7
2019-Oct-16 17:42N 36°33' W 003°37'617.3
2019-Oct-16 17:22N 36°34' W 003°44'513.1
2019-Oct-16 17:00N 36°30' W 003°48'34 2.3 290 / 61015.027.0 22.022.022.0
2019-Oct-16 02:00N 36°30' W 004°30'439439.2 330 / 51017.027.0 19.019.019.0
2019-Oct-16 01:00N 36°24' E 004°36'47953.3 340 / 51017.027.0
2019-Oct-15 16:00N 36°06' W 005°18'83 6.4 270 / 131016.027.0 24.024.020.0
2019-Oct-15 03:00N 36°12' W 003°36'18116.4 300 / 241015.027.0 20.020.022.0
2019-Oct-14 16:00N 37°48' W 000°24'30 4.3 210 / 141008.0 23.0 24.0
2019-Oct-14 09:00N 38°18' W 000°24'15 2.2 150 / 41013.0 26.0 25.0
2019-Oct-14 02:00N 38°24' W 000°06'62 7.5 320 / 91018.0 21.0 24.0
2019-Oct-13 17:40N 39°26' W 000°17'1 7.7
2019-Oct-13 17:30N 39°27' W 000°18'1 1.7
2019-Oct-13 17:00N 39°28' W 000°18'0 0.0
2019-Oct-13 16:28N 39°28' W 000°18'0 0.0
2019-Oct-13 15:58N 39°28' W 000°18'0 0.0
2019-Oct-13 15:30N 39°28' W 000°18'0 0.0
2019-Oct-13 15:00N 39°28' W 000°18'0 0.0
2019-Oct-13 14:28N 39°28' W 000°18'4 7.4
2019-Oct-13 14:00N 39°24' W 000°18'42580.4 130 / 101016.0 23.0 25.0
2019-Oct-13 13:59N 39°28' W 000°18'0 0.0
2019-Oct-13 13:29N 39°28' W 000°18'0 0.0
2019-Oct-13 12:59N 39°28' W 000°18'0 0.0
2019-Oct-13 12:28N 39°28' W 000°18'0 0.0
2019-Oct-13 11:58N 39°28' W 000°18'0 0.0
2019-Oct-13 11:28N 39°28' W 000°18'0 0.0
2019-Oct-13 11:00N 39°28' W 000°18'0 0.0
2019-Oct-13 10:30N 39°28' W 000°18'0 0.0
2019-Oct-13 10:00N 39°28' W 000°18'0 0.0
2019-Oct-13 09:30N 39°28' W 000°18'0 0.0
2019-Oct-13 09:00N 39°28' W 000°18'0 0.0
2019-Oct-13 08:30N 39°28' W 000°18'0 0.0
2019-Oct-13 08:00N 39°28' W 000°18'0 0.0
2019-Oct-13 07:28N 39°28' W 000°18'0 0.0
2019-Oct-13 06:58N 39°28' W 000°18'0 0.0
2019-Oct-13 06:30N 39°28' W 000°18'0 0.0
2019-Oct-13 06:00N 39°28' W 000°18'0 0.0
2019-Oct-13 05:30N 39°28' W 000°18'0 0.0
2019-Oct-13 05:00N 39°28' W 000°18'0 0.3
2019-Oct-13 04:30N 39°27' W 000°18'3 6.0
2019-Oct-13 04:00N 39°26' W 000°15'714.6
2019-Oct-13 03:30N 39°31' W 000°09'6013.2
2019-Oct-12 23:00N 40°12' E 000°48'5412.6 150 / 191014.027.0 24.024.024.0
2019-Oct-12 18:40N 40°49' E 001°41'211.6
2019-Oct-12 18:30N 40°50' E 001°42'611.6
2019-Oct-12 18:00N 40°54' E 001°48'612.3
2019-Oct-12 17:30N 40°59' E 001°53'815.8
2019-Oct-12 17:00N 41°05' E 001°60'815.8
2019-Oct-12 16:30N 41°11' E 002°06'714.6
2019-Oct-12 16:01N 41°18' E 002°11'4 7.5
2019-Oct-12 15:31N 41°21' E 002°11'0 0.2
2019-Oct-12 15:00N 41°22' E 002°11'0 0.0
2019-Oct-12 14:29N 41°22' E 002°11'0 0.0
2019-Oct-12 13:58N 41°22' E 002°11'0 0.0
2019-Oct-12 13:25N 41°22' E 002°11'0 0.0
2019-Oct-12 13:00N 41°22' E 002°11'0 0.0
2019-Oct-12 12:29N 41°22' E 002°11'0 0.0
2019-Oct-12 11:59N 41°22' E 002°11'0 0.0
2019-Oct-12 11:29N 41°22' E 002°11'0 0.0
2019-Oct-12 10:58N 41°22' E 002°11'0 0.0
2019-Oct-12 10:28N 41°22' E 002°11'510.5
2019-Oct-12 10:00N 41°18' E 002°06'5206.5 320 / 31017.027.0 23.023.023.0
2019-Oct-12 09:58N 41°22' E 002°11'0 0.0
2019-Oct-12 09:28N 41°22' E 002°11'0 0.0
2019-Oct-12 08:58N 41°22' E 002°11'0 0.0
2019-Oct-12 08:28N 41°22' E 002°11'0 0.0
2019-Oct-12 07:58N 41°22' E 002°11'0 0.0
2019-Oct-12 07:28N 41°22' E 002°11'0 0.0
2019-Oct-12 06:58N 41°22' E 002°11'0 0.0
2019-Oct-12 06:30N 41°22' E 002°11'0 0.0
2019-Oct-12 06:00N 41°22' E 002°11'0 0.0
2019-Oct-12 05:30N 41°22' E 002°11'0 0.0
2019-Oct-12 04:59N 41°22' E 002°11'0 0.0
2019-Oct-12 04:29N 41°22' E 002°11'0 0.0
2019-Oct-12 04:00N 41°22' E 002°11'51995.8
2019-Oct-12 04:00N 41°18' E 002°06'510.0 100 / 21020.0 22.0 22.0
2019-Oct-12 03:30N 41°21' E 002°10'3 5.5
2019-Oct-12 03:00N 41°19' E 002°10'713.4
2019-Oct-12 02:30N 41°14' E 002°17'816.1
2019-Oct-12 02:00N 41°10' E 002°26'816.3
2019-Oct-12 01:30N 41°07' E 002°36'816.4
2019-Oct-12 01:00N 41°02' E 002°46'3919.6
2019-Oct-11 23:00N 40°42' E 003°30'10615.2 140 / 181017.027.0 23.023.024.0
2019-Oct-11 16:00N 39°48' E 005°30'11122.3 120 / 51022.0 22.0 24.0
2019-Oct-11 11:00N 38°54' E 007°36'11018.3 340 / 51020.027.0 23.023.024.0
2019-Oct-11 05:00N 38°06' E 009°42'12520.8 330 / 211020.027.0
2019-Oct-10 23:00N 37°06' E 012°00'9515.8 330 / 151016.0 22.022.023.0
2019-Oct-10 17:00N 36°18' E 013°42'49 8.2 330 / 51016.0 23.0 25.0
2019-Oct-10 11:00N 35°48' E 014°30'81 7.4 040 / 121012.027.0 24.024.026.0
2019-Oct-10 00:00N 36°12' E 016°06'21816.8 110 / 151010.0 5.4 24.024.025.0
2019-Oct-09 11:00N 36°18' E 020°36'2914.5 120 / 241017.027.0 24.024.026.0
2019-Oct-09 09:00N 36°18' E 021°12'6718.6 100 / 251019.0 0.3 23.014.622.0
2019-Oct-09 05:23N 36°07' E 022°34'718.7
2019-Oct-09 05:00N 36°06' E 022°43'918.4
2019-Oct-09 04:31N 36°04' E 022°54'917.7
2019-Oct-09 04:01N 36°03' E 023°05'917.3
2019-Oct-09 03:30N 36°04' E 023°16'  
Track history (hours):
 
Tides and Currents Weather Stations Pressure Air Temp Water Temp Dewpoint Dewpoint Depression Visibility Wind Speed Wind Dir Waves Ship Positions

Celebrity Reflection

Last reported at 2019-Oct-18 23:26 UTC. Time now 2019-Oct-18 23:52 UTC.
Position N 42°55' E 006°45'.

Length 319 m; draft 8.5 m.

Type: Passenger vessel. MMSI: 229074000.

Date/timePositionNaut miles runAvg speedWind from/ knotsBaromVisibWave heightAir tempDewpointWater temp
2019-Oct-18 23:26N 42°55' E 006°45'911.2
2019-Oct-18 22:36N 42°49' E 006°35'63 8.3
2019-Oct-18 15:00N 43°18' E 005°18'45 3.7 180 / 161011.010.8 22.018.920.0
2019-Oct-18 03:00N 42°42' E 004°42'8518.5 130 / 261011.0 19.0 20.0
2019-Oct-17 22:24N 41°35' E 003°32'817.0
2019-Oct-17 21:58N 41°29' E 003°26'917.0
2019-Oct-17 21:27N 41°22' E 003°19'917.6
2019-Oct-17 20:56N 41°14' E 003°12'717.6
2019-Oct-17 20:30N 41°08' E 003°06'1417.1
2019-Oct-17 19:41N 40°57' E 002°56'917.2
2019-Oct-17 19:09N 40°49' E 002°48'417.0
2019-Oct-17 18:54N 40°46' E 002°45'817.1
2019-Oct-17 18:26N 40°39' E 002°39'717.1
2019-Oct-17 18:00N 40°33' E 002°34'2117.7
2019-Oct-17 16:48N 40°16' E 002°17'618.6
2019-Oct-17 16:30N 40°11' E 002°13'510.6
2019-Oct-17 16:00N 40°06' E 002°12'21616.6 230 / 151012.027.0 23.023.024.0
2019-Oct-17 03:00N 37°18' W 000°42'2322.6 260 / 181014.027.0 21.021.024.0
2019-Oct-17 02:00N 37°06' W 001°06'7615.7 260 / 171017.027.0
2019-Oct-16 21:08N 36°22' W 002°24'217.3
2019-Oct-16 21:00N 36°22' W 002°27'917.2
2019-Oct-16 20:30N 36°24' W 002°37'917.2
2019-Oct-16 20:00N 36°26' W 002°47'917.3
2019-Oct-16 19:30N 36°28' W 002°58'1617.3
2019-Oct-16 18:35N 36°30' W 003°18'117.5
2019-Oct-16 18:30N 36°30' W 003°19'1417.7
2019-Oct-16 17:42N 36°33' W 003°37'617.3
2019-Oct-16 17:22N 36°34' W 003°44'513.1
2019-Oct-16 17:00N 36°30' W 003°48'34 2.3 290 / 61015.027.0 22.022.022.0
2019-Oct-16 02:00N 36°30' W 004°30'439439.2 330 / 51017.027.0 19.019.019.0
2019-Oct-16 01:00N 36°24' E 004°36'47953.3 340 / 51017.027.0
2019-Oct-15 16:00N 36°06' W 005°18'83 6.4 270 / 131016.027.0 24.024.020.0
2019-Oct-15 03:00N 36°12' W 003°36'18116.4 300 / 241015.027.0 20.020.022.0
2019-Oct-14 16:00N 37°48' W 000°24'30 4.3 210 / 141008.0 23.0 24.0
2019-Oct-14 09:00N 38°18' W 000°24'15 2.2 150 / 41013.0 26.0 25.0
2019-Oct-14 02:00N 38°24' W 000°06'62 7.5 320 / 91018.0 21.0 24.0
2019-Oct-13 17:40N 39°26' W 000°17'1 7.7
2019-Oct-13 17:30N 39°27' W 000°18'1 1.7
2019-Oct-13 17:00N 39°28' W 000°18'0 0.0
2019-Oct-13 16:28N 39°28' W 000°18'0 0.0
2019-Oct-13 15:58N 39°28' W 000°18'0 0.0
2019-Oct-13 15:30N 39°28' W 000°18'0 0.0
2019-Oct-13 15:00N 39°28' W 000°18'0 0.0
2019-Oct-13 14:28N 39°28' W 000°18'4 7.4
2019-Oct-13 14:00N 39°24' W 000°18'42580.4 130 / 101016.0 23.0 25.0
2019-Oct-13 13:59N 39°28' W 000°18'0 0.0
2019-Oct-13 13:29N 39°28' W 000°18'0 0.0
2019-Oct-13 12:59N 39°28' W 000°18'0 0.0
2019-Oct-13 12:28N 39°28' W 000°18'0 0.0
2019-Oct-13 11:58N 39°28' W 000°18'0 0.0
2019-Oct-13 11:28N 39°28' W 000°18'0 0.0
2019-Oct-13 11:00N 39°28' W 000°18'0 0.0
2019-Oct-13 10:30N 39°28' W 000°18'0 0.0
2019-Oct-13 10:00N 39°28' W 000°18'0 0.0
2019-Oct-13 09:30N 39°28' W 000°18'0 0.0
2019-Oct-13 09:00N 39°28' W 000°18'0 0.0
2019-Oct-13 08:30N 39°28' W 000°18'0 0.0
2019-Oct-13 08:00N 39°28' W 000°18'0 0.0
2019-Oct-13 07:28N 39°28' W 000°18'0 0.0
2019-Oct-13 06:58N 39°28' W 000°18'0 0.0
2019-Oct-13 06:30N 39°28' W 000°18'0 0.0
2019-Oct-13 06:00N 39°28' W 000°18'0 0.0
2019-Oct-13 05:30N 39°28' W 000°18'0 0.0
2019-Oct-13 05:00N 39°28' W 000°18'0 0.3
2019-Oct-13 04:30N 39°27' W 000°18'3 6.0
2019-Oct-13 04:00N 39°26' W 000°15'714.6
2019-Oct-13 03:30N 39°31' W 000°09'6013.2
2019-Oct-12 23:00N 40°12' E 000°48'5412.6 150 / 191014.027.0 24.024.024.0
2019-Oct-12 18:40N 40°49' E 001°41'211.6
2019-Oct-12 18:30N 40°50' E 001°42'611.6
2019-Oct-12 18:00N 40°54' E 001°48'612.3
2019-Oct-12 17:30N 40°59' E 001°53'815.8
2019-Oct-12 17:00N 41°05' E 001°60'815.8
2019-Oct-12 16:30N 41°11' E 002°06'714.6
2019-Oct-12 16:01N 41°18' E 002°11'4 7.5
2019-Oct-12 15:31N 41°21' E 002°11'0 0.2
2019-Oct-12 15:00N 41°22' E 002°11'0 0.0
2019-Oct-12 14:29N 41°22' E 002°11'0 0.0
2019-Oct-12 13:58N 41°22' E 002°11'0 0.0
2019-Oct-12 13:25N 41°22' E 002°11'0 0.0
2019-Oct-12 13:00N 41°22' E 002°11'0 0.0
2019-Oct-12 12:29N 41°22' E 002°11'0 0.0
2019-Oct-12 11:59N 41°22' E 002°11'0 0.0
2019-Oct-12 11:29N 41°22' E 002°11'0 0.0
2019-Oct-12 10:58N 41°22' E 002°11'0 0.0
2019-Oct-12 10:28N 41°22' E 002°11'510.5
2019-Oct-12 10:00N 41°18' E 002°06'5206.5 320 / 31017.027.0 23.023.023.0
2019-Oct-12 09:58N 41°22' E 002°11'0 0.0
2019-Oct-12 09:28N 41°22' E 002°11'0 0.0
2019-Oct-12 08:58N 41°22' E 002°11'0 0.0
2019-Oct-12 08:28N 41°22' E 002°11'0 0.0
2019-Oct-12 07:58N 41°22' E 002°11'0 0.0
2019-Oct-12 07:28N 41°22' E 002°11'0 0.0
2019-Oct-12 06:58N 41°22' E 002°11'0 0.0
2019-Oct-12 06:30N 41°22' E 002°11'0 0.0
2019-Oct-12 06:00N 41°22' E 002°11'0 0.0
2019-Oct-12 05:30N 41°22' E 002°11'0 0.0
2019-Oct-12 04:59N 41°22' E 002°11'0 0.0
2019-Oct-12 04:29N 41°22' E 002°11'0 0.0
2019-Oct-12 04:00N 41°22' E 002°11'51995.8
2019-Oct-12 04:00N 41°18' E 002°06'510.0 100 / 21020.0 22.0 22.0
2019-Oct-12 03:30N 41°21' E 002°10'3 5.5
2019-Oct-12 03:00N 41°19' E 002°10'713.4
2019-Oct-12 02:30N 41°14' E 002°17'816.1
2019-Oct-12 02:00N 41°10' E 002°26'816.3
2019-Oct-12 01:30N 41°07' E 002°36'816.4
2019-Oct-12 01:00N 41°02' E 002°46'3919.6
2019-Oct-11 23:00N 40°42' E 003°30'10615.2 140 / 181017.027.0 23.023.024.0
2019-Oct-11 16:00N 39°48' E 005°30'11122.3 120 / 51022.0 22.0 24.0
2019-Oct-11 11:00N 38°54' E 007°36'11018.3 340 / 51020.027.0 23.023.024.0
2019-Oct-11 05:00N 38°06' E 009°42'12520.8 330 / 211020.027.0
2019-Oct-10 23:00N 37°06' E 012°00'9515.8 330 / 151016.0 22.022.023.0
2019-Oct-10 17:00N 36°18' E 013°42'49 8.2 330 / 51016.0 23.0 25.0
2019-Oct-10 11:00N 35°48' E 014°30'81 7.4 040 / 121012.027.0 24.024.026.0
2019-Oct-10 00:00N 36°12' E 016°06'21816.8 110 / 151010.0 5.4 24.024.025.0
2019-Oct-09 11:00N 36°18' E 020°36'2914.5 120 / 241017.027.0 24.024.026.0
2019-Oct-09 09:00N 36°18' E 021°12'6718.6 100 / 251019.0 0.3 23.014.622.0
2019-Oct-09 05:23N 36°07' E 022°34'718.7
2019-Oct-09 05:00N 36°06' E 022°43'918.4
2019-Oct-09 04:31N 36°04' E 022°54'917.7
2019-Oct-09 04:01N 36°03' E 023°05'917.3
2019-Oct-09 03:30N 36°04' E 023°16'  

Dump ship's entire track history